RYR225 LPMA-GCXO
Flight info
| Callsign | RYR225 |
|---|---|
| Flight time | N/A |
| Altitude | 35000 |
| Route | GOSGA DCT ORTIS |
| Aircraft | B737/M-SDE2E3FGHIRWXY/LB1 |
Departure
| Time | N/A |
|---|---|
| Airport | Cristiano Ronaldo International Airport (LPMA) |
Arrival
| Time | 2026-04-17 07:54 |
|---|---|
| Airport | Tenerife Norte-Ciudad de La Laguna Airport (GCXO) |
| Time | Latitude | Longitude | Altitude | Speed | Heading |
|---|---|---|---|---|---|
| 2026-04-17 07:30 | 30.08209 | -16.42199 | 35079 ft | 423 kts | 180° |
| 2026-04-17 07:31 | 30.02345 | -16.41610 | 35077 ft | 424 kts | 180° |
| 2026-04-17 07:31 | 29.96472 | -16.41020 | 35077 ft | 424 kts | 180° |
| 2026-04-17 07:32 | 29.90598 | -16.40431 | 35059 ft | 424 kts | 180° |
| 2026-04-17 07:32 | 29.84726 | -16.39844 | 34987 ft | 424 kts | 180° |
| 2026-04-17 07:33 | 29.81767 | -16.39549 | 34431 ft | 427 kts | 180° |
| 2026-04-17 07:33 | 29.78811 | -16.39253 | 33816 ft | 425 kts | 180° |
| 2026-04-17 07:33 | 29.75882 | -16.38958 | 33333 ft | 420 kts | 180° |
| 2026-04-17 07:33 | 29.72984 | -16.38667 | 32822 ft | 416 kts | 180° |
| 2026-04-17 07:34 | 29.70115 | -16.38381 | 32335 ft | 412 kts | 180° |
| 2026-04-17 07:34 | 29.67273 | -16.38097 | 31858 ft | 408 kts | 179° |
| 2026-04-17 07:34 | 29.64455 | -16.37817 | 31390 ft | 405 kts | 179° |
| 2026-04-17 07:34 | 29.61659 | -16.37539 | 30925 ft | 402 kts | 179° |
| 2026-04-17 07:35 | 29.58885 | -16.37263 | 30471 ft | 400 kts | 179° |
| 2026-04-17 07:35 | 29.56106 | -16.36987 | 29787 ft | 402 kts | 179° |
| 2026-04-17 07:35 | 29.53332 | -16.36711 | 29266 ft | 398 kts | 179° |
| 2026-04-17 07:35 | 29.50583 | -16.36436 | 28734 ft | 395 kts | 179° |
| 2026-04-17 07:36 | 29.47859 | -16.36164 | 28250 ft | 391 kts | 179° |
| 2026-04-17 07:36 | 29.45164 | -16.35895 | 27760 ft | 387 kts | 179° |
| 2026-04-17 07:36 | 29.42492 | -16.35629 | 27280 ft | 384 kts | 179° |
| 2026-04-17 07:36 | 29.39844 | -16.35366 | 26812 ft | 380 kts | 178° |
| 2026-04-17 07:37 | 29.37217 | -16.35105 | 26330 ft | 377 kts | 178° |
| 2026-04-17 07:37 | 29.34612 | -16.34846 | 25870 ft | 374 kts | 178° |
| 2026-04-17 07:37 | 29.32032 | -16.34591 | 25408 ft | 372 kts | 178° |
| 2026-04-17 07:37 | 29.29462 | -16.34336 | 24952 ft | 369 kts | 178° |
| 2026-04-17 07:38 | 29.26908 | -16.34083 | 24499 ft | 367 kts | 178° |
| 2026-04-17 07:38 | 29.24365 | -16.33832 | 24018 ft | 366 kts | 178° |
| 2026-04-17 07:38 | 29.21830 | -16.33581 | 23531 ft | 365 kts | 178° |
| 2026-04-17 07:38 | 29.19305 | -16.33331 | 23004 ft | 363 kts | 178° |
| 2026-04-17 07:39 | 29.16799 | -16.33083 | 22511 ft | 360 kts | 178° |
| 2026-04-17 07:39 | 29.14313 | -16.32837 | 22039 ft | 357 kts | 177° |
| 2026-04-17 07:39 | 29.11848 | -16.32593 | 21576 ft | 354 kts | 177° |
| 2026-04-17 07:39 | 29.09402 | -16.32352 | 21113 ft | 351 kts | 177° |
| 2026-04-17 07:40 | 29.06974 | -16.32112 | 20661 ft | 349 kts | 177° |
| 2026-04-17 07:40 | 29.04561 | -16.31874 | 20207 ft | 347 kts | 177° |
| 2026-04-17 07:40 | 29.02163 | -16.31638 | 19757 ft | 345 kts | 176° |
| 2026-04-17 07:40 | 28.99809 | -16.31405 | 19314 ft | 343 kts | 177° |
| 2026-04-17 07:41 | 28.97433 | -16.31171 | 18849 ft | 343 kts | 177° |
| 2026-04-17 07:41 | 28.95058 | -16.30938 | 18380 ft | 342 kts | 177° |
| 2026-04-17 07:41 | 28.92688 | -16.30705 | 17867 ft | 341 kts | 176° |
| 2026-04-17 07:41 | 28.90330 | -16.30472 | 17390 ft | 339 kts | 176° |
| 2026-04-17 07:42 | 28.87987 | -16.30241 | 16925 ft | 337 kts | 176° |
| 2026-04-17 07:42 | 28.85664 | -16.30012 | 16472 ft | 334 kts | 177° |
| 2026-04-17 07:42 | 28.83357 | -16.29786 | 16023 ft | 332 kts | 177° |
| 2026-04-17 07:42 | 28.81066 | -16.29560 | 15582 ft | 329 kts | 177° |
| 2026-04-17 07:43 | 28.78789 | -16.29337 | 15143 ft | 327 kts | 177° |
| 2026-04-17 07:43 | 28.76516 | -16.29114 | 14572 ft | 330 kts | 177° |
| 2026-04-17 07:43 | 28.74228 | -16.28890 | 14074 ft | 330 kts | 177° |
| 2026-04-17 07:43 | 28.71943 | -16.28666 | 13557 ft | 329 kts | 177° |
| 2026-04-17 07:44 | 28.69677 | -16.28443 | 13076 ft | 325 kts | 177° |
| 2026-04-17 07:44 | 28.67432 | -16.28223 | 12618 ft | 322 kts | 177° |
| 2026-04-17 07:44 | 28.65220 | -16.28006 | 12195 ft | 317 kts | 177° |
| 2026-04-17 07:44 | 28.63035 | -16.27792 | 11754 ft | 313 kts | 177° |
| 2026-04-17 07:45 | 28.60884 | -16.27700 | 11297 ft | 308 kts | 189° |
| 2026-04-17 07:45 | 28.58884 | -16.28462 | 10863 ft | 302 kts | 210° |
| 2026-04-17 07:45 | 28.57301 | -16.29996 | 10441 ft | 300 kts | 230° |
| 2026-04-17 07:45 | 28.56324 | -16.32036 | 10268 ft | 293 kts | 248° |
| 2026-04-17 07:46 | 28.55961 | -16.34296 | 10093 ft | 290 kts | 264° |
| 2026-04-17 07:46 | 28.56242 | -16.36543 | 10054 ft | 281 kts | 279° |
| 2026-04-17 07:46 | 28.56783 | -16.38691 | 9539 ft | 285 kts | 282° |
| 2026-04-17 07:46 | 28.57385 | -16.40832 | 9123 ft | 284 kts | 283° |
| 2026-04-17 07:47 | 28.57988 | -16.42968 | 8750 ft | 282 kts | 283° |
| 2026-04-17 07:47 | 28.58577 | -16.45089 | 8379 ft | 280 kts | 283° |
| 2026-04-17 07:47 | 28.59154 | -16.47201 | 8013 ft | 279 kts | 283° |
| 2026-04-17 07:47 | 28.59722 | -16.49303 | 7648 ft | 277 kts | 283° |
| 2026-04-17 07:48 | 28.60278 | -16.51373 | 7237 ft | 278 kts | 283° |
| 2026-04-17 07:48 | 28.60842 | -16.53478 | 6870 ft | 278 kts | 283° |
| 2026-04-17 07:48 | 28.61218 | -16.55604 | 6488 ft | 272 kts | 264° |
| 2026-04-17 07:48 | 28.60731 | -16.57599 | 6295 ft | 255 kts | 237° |
| 2026-04-17 07:49 | 28.59631 | -16.59087 | 6208 ft | 240 kts | 217° |
| 2026-04-17 07:49 | 28.58194 | -16.59915 | 6030 ft | 230 kts | 186° |
| 2026-04-17 07:49 | 28.56698 | -16.59547 | 5927 ft | 220 kts | 146° |
| 2026-04-17 07:49 | 28.55822 | -16.58190 | 5824 ft | 216 kts | 108° |
| 2026-04-17 07:50 | 28.55507 | -16.56531 | 5739 ft | 212 kts | 107° |
| 2026-04-17 07:50 | 28.55122 | -16.54891 | 5520 ft | 219 kts | 111° |
| 2026-04-17 07:50 | 28.54624 | -16.53255 | 5263 ft | 219 kts | 114° |
| 2026-04-17 07:50 | 28.54087 | -16.51633 | 4983 ft | 219 kts | 114° |
| 2026-04-17 07:51 | 28.53547 | -16.50021 | 4707 ft | 218 kts | 113° |
| 2026-04-17 07:51 | 28.53009 | -16.48408 | 4420 ft | 218 kts | 112° |
| 2026-04-17 07:51 | 28.52473 | -16.46800 | 4150 ft | 217 kts | 112° |
| 2026-04-17 07:51 | 28.51938 | -16.45193 | 3859 ft | 217 kts | 112° |
| 2026-04-17 07:52 | 28.51404 | -16.43589 | 3586 ft | 217 kts | 112° |
| 2026-04-17 07:52 | 28.50870 | -16.41986 | 3316 ft | 216 kts | 111° |
| 2026-04-17 07:52 | 28.50354 | -16.40435 | 3001 ft | 202 kts | 111° |
| 2026-04-17 07:52 | 28.49876 | -16.38996 | 2735 ft | 187 kts | 111° |
| 2026-04-17 07:53 | 28.49435 | -16.37674 | 2519 ft | 170 kts | 111° |
| 2026-04-17 07:53 | 28.49030 | -16.36442 | 2318 ft | 157 kts | 110° |
| 2026-04-17 07:53 | 28.48663 | -16.35349 | 2082 ft | 139 kts | 111° |
| 2026-04-17 07:53 | 28.48358 | -16.34429 | 2060 ft | 106 kts | 111° |
| 2026-04-17 07:54 | 28.48155 | -16.33809 | 2056 ft | 51 kts | 108° |
| 2026-04-17 07:54 | 28.48139 | -16.33594 | 2051 ft | 15 kts | 93° |
| 2026-04-17 07:54 | 28.48182 | -16.33579 | 2051 ft | 9 kts | 307° |
| 2026-04-17 07:54 | 28.48210 | -16.33643 | 2053 ft | 9 kts | 292° |
| 2026-04-17 07:55 | 28.48233 | -16.33708 | 2054 ft | 9 kts | 291° |
| 2026-04-17 07:55 | 28.48255 | -16.33772 | 2056 ft | 8 kts | 291° |
| 2026-04-17 07:55 | 28.48276 | -16.33833 | 2057 ft | 8 kts | 291° |
| 2026-04-17 07:55 | 28.48296 | -16.33893 | 2058 ft | 8 kts | 290° |
| 2026-04-17 07:56 | 28.48317 | -16.33958 | 2059 ft | 10 kts | 288° |
| 2026-04-17 07:56 | 28.48345 | -16.34045 | 2060 ft | 13 kts | 290° |
| 2026-04-17 07:56 | 28.48382 | -16.34158 | 2060 ft | 17 kts | 290° |
| 2026-04-17 07:56 | 28.48426 | -16.34290 | 2060 ft | 17 kts | 290° |
| 2026-04-17 07:57 | 28.48468 | -16.34418 | 2060 ft | 19 kts | 290° |
| 2026-04-17 07:57 | 28.48497 | -16.34505 | 2060 ft | 15 kts | 290° |
| 2026-04-17 07:57 | 28.48569 | -16.34579 | 2060 ft | 10 kts | 25° |
| 2026-04-17 07:57 | 28.48604 | -16.34562 | 2060 ft | 8 kts | 20° |
| 2026-04-17 07:58 | 28.48636 | -16.34548 | 2060 ft | 0 kts | 22° |
| 2026-04-17 07:58 | 28.48637 | -16.34547 | 2060 ft | 0 kts | 22° |